sensor_id;sensor_type;location;lat;lon;timestamp;pressure;altitude;pressure_sealevel;temperature;humidity
53300;BME280;39187;48.476;8.310;2023-02-19T00:02:25;91766.34;;;6.28;100.00
53300;BME280;39187;48.476;8.310;2023-02-19T00:04:51;91760.28;;;6.17;100.00
53300;BME280;39187;48.476;8.310;2023-02-19T00:07:16;91755.03;;;6.24;100.00
53300;BME280;39187;48.476;8.310;2023-02-19T00:09:42;91759.59;;;6.34;100.00
53300;BME280;39187;48.476;8.310;2023-02-19T00:12:07;91757.34;;;6.33;100.00
53300;BME280;39187;48.476;8.310;2023-02-19T00:14:33;91754.28;;;6.31;100.00
53300;BME280;39187;48.476;8.310;2023-02-19T00:16:58;91760.34;;;6.35;100.00
53300;BME280;39187;48.476;8.310;2023-02-19T00:19:24;91763.31;;;6.23;100.00
53300;BME280;39187;48.476;8.310;2023-02-19T00:21:51;91765.28;;;6.40;100.00
53300;BME280;39187;48.476;8.310;2023-02-19T00:24:17;91761.84;;;6.36;100.00
53300;BME280;39187;48.476;8.310;2023-02-19T00:26:43;91761.09;;;6.32;100.00
53300;BME280;39187;48.476;8.310;2023-02-19T00:29:17;91745.22;;;6.25;100.00
53300;BME280;39187;48.476;8.310;2023-02-19T00:31:44;91758.47;;;6.39;100.00
53300;BME280;39187;48.476;8.310;2023-02-19T00:34:10;91746.25;;;5.99;100.00
53300;BME280;39187;48.476;8.310;2023-02-19T00:36:39;91753.06;;;6.00;100.00
53300;BME280;39187;48.476;8.310;2023-02-19T00:39:06;91750.31;;;5.86;100.00
53300;BME280;39187;48.476;8.310;2023-02-19T00:41:32;91750.78;;;6.02;100.00
53300;BME280;39187;48.476;8.310;2023-02-19T00:44:00;91744.31;;;5.89;100.00
53300;BME280;39187;48.476;8.310;2023-02-19T00:48:54;91738.66;;;5.90;100.00
53300;BME280;39187;48.476;8.310;2023-02-19T00:51:22;91724.63;;;5.79;100.00
53300;BME280;39187;48.476;8.310;2023-02-19T00:53:48;91720.84;;;5.80;100.00
53300;BME280;39187;48.476;8.310;2023-02-19T00:56:14;91733.00;;;5.95;100.00
53300;BME280;39187;48.476;8.310;2023-02-19T00:58:40;91739.03;;;5.89;100.00
53300;BME280;39187;48.476;8.310;2023-02-19T01:01:06;91738.28;;;5.95;100.00
53300;BME280;39187;48.476;8.310;2023-02-19T01:03:33;91734.13;;;5.91;100.00
53300;BME280;39187;48.476;8.310;2023-02-19T01:05:59;91722.44;;;5.92;100.00
53300;BME280;39187;48.476;8.310;2023-02-19T01:08:25;91720.94;;;5.94;100.00
53300;BME280;39187;48.476;8.310;2023-02-19T01:10:52;91721.63;;;5.84;100.00
53300;BME280;39187;48.476;8.310;2023-02-19T01:13:17;91734.41;;;5.79;100.00
53300;BME280;39187;48.476;8.310;2023-02-19T01:15:43;91717.53;;;5.94;100.00
53300;BME280;39187;48.476;8.310;2023-02-19T01:18:09;91706.91;;;5.87;100.00
53300;BME280;39187;48.476;8.310;2023-02-19T01:20:38;91709.22;;;5.92;100.00
53300;BME280;39187;48.476;8.310;2023-02-19T01:23:03;91714.00;;;5.69;100.00
53300;BME280;39187;48.476;8.310;2023-02-19T01:25:29;91721.97;;;5.83;100.00
53300;BME280;39187;48.476;8.310;2023-02-19T01:27:55;91724.25;;;5.84;100.00
53300;BME280;39187;48.476;8.310;2023-02-19T01:30:20;91729.91;;;5.76;100.00
53300;BME280;39187;48.476;8.310;2023-02-19T01:32:46;91736.66;;;5.73;100.00
53300;BME280;39187;48.476;8.310;2023-02-19T01:35:11;91726.38;;;5.57;100.00
53300;BME280;39187;48.476;8.310;2023-02-19T01:37:37;91722.53;;;5.44;100.00
53300;BME280;39187;48.476;8.310;2023-02-19T01:40:03;91722.22;;;5.49;100.00
53300;BME280;39187;48.476;8.310;2023-02-19T01:42:28;91727.53;;;5.56;100.00
53300;BME280;39187;48.476;8.310;2023-02-19T01:47:38;91712.00;;;5.48;100.00
53300;BME280;39187;48.476;8.310;2023-02-19T01:50:03;91715.78;;;5.47;100.00
53300;BME280;39187;48.476;8.310;2023-02-19T01:52:32;91715.81;;;5.57;100.00
53300;BME280;39187;48.476;8.310;2023-02-19T01:55:00;91705.66;;;5.56;100.00
53300;BME280;39187;48.476;8.310;2023-02-19T01:57:30;91707.44;;;5.45;100.00
53300;BME280;39187;48.476;8.310;2023-02-19T02:00:03;91710.88;;;5.49;100.00
53300;BME280;39187;48.476;8.310;2023-02-19T02:02:30;91709.28;;;5.30;100.00
53300;BME280;39187;48.476;8.310;2023-02-19T02:04:57;91687.09;;;5.45;100.00
53300;BME280;39187;48.476;8.310;2023-02-19T02:07:24;91695.31;;;5.30;100.00
53300;BME280;39187;48.476;8.310;2023-02-19T02:10:08;91707.81;;;5.36;100.00
53300;BME280;39187;48.476;8.310;2023-02-19T02:12:47;91706.28;;;5.39;100.00
53300;BME280;39187;48.476;8.310;2023-02-19T02:15:14;91711.56;;;5.35;100.00
53300;BME280;39187;48.476;8.310;2023-02-19T02:20:35;91735.31;;;5.35;100.00
53300;BME280;39187;48.476;8.310;2023-02-19T02:29:10;91703.19;;;5.22;100.00
53300;BME280;39187;48.476;8.310;2023-02-19T02:31:42;91704.25;;;5.11;100.00
53300;BME280;39187;48.476;8.310;2023-02-19T02:37:27;91686.09;;;5.06;100.00
53300;BME280;39187;48.476;8.310;2023-02-19T02:39:57;91681.97;;;5.08;100.00
53300;BME280;39187;48.476;8.310;2023-02-19T02:42:23;91684.66;;;5.12;100.00
53300;BME280;39187;48.476;8.310;2023-02-19T02:44:55;91674.03;;;5.01;100.00
53300;BME280;39187;48.476;8.310;2023-02-19T02:47:49;91671.38;;;4.98;100.00
53300;BME280;39187;48.476;8.310;2023-02-19T02:50:24;91665.03;;;5.13;100.00
53300;BME280;39187;48.476;8.310;2023-02-19T02:52:55;91648.75;;;5.00;100.00
53300;BME280;39187;48.476;8.310;2023-02-19T02:55:43;91655.56;;;5.01;100.00
53300;BME280;39187;48.476;8.310;2023-02-19T02:58:12;91640.47;;;4.98;100.00
53300;BME280;39187;48.476;8.310;2023-02-19T03:00:40;91652.03;;;4.79;100.00
53300;BME280;39187;48.476;8.310;2023-02-19T03:03:27;91638.88;;;4.87;100.00
53300;BME280;39187;48.476;8.310;2023-02-19T03:05:59;91644.19;;;4.90;100.00
53300;BME280;39187;48.476;8.310;2023-02-19T03:08:32;91645.72;;;4.95;100.00
53300;BME280;39187;48.476;8.310;2023-02-19T03:11:02;91654.69;;;4.87;100.00
53300;BME280;39187;48.476;8.310;2023-02-19T03:14:15;91661.50;;;4.88;100.00
53300;BME280;39187;48.476;8.310;2023-02-19T03:17:08;91651.28;;;4.79;100.00
53300;BME280;39187;48.476;8.310;2023-02-19T03:20:04;91650.50;;;4.78;100.00
53300;BME280;39187;48.476;8.310;2023-02-19T03:22:33;91644.16;;;4.87;100.00
53300;BME280;39187;48.476;8.310;2023-02-19T03:25:08;91648.94;;;4.74;100.00
53300;BME280;39187;48.476;8.310;2023-02-19T03:27:56;91654.66;;;4.79;100.00
53300;BME280;39187;48.476;8.310;2023-02-19T03:30:28;91658.78;;;4.80;100.00
53300;BME280;39187;48.476;8.310;2023-02-19T03:33:06;91639.94;;;4.75;100.00
53300;BME280;39187;48.476;8.310;2023-02-19T03:35:56;91649.00;;;4.81;100.00
53300;BME280;39187;48.476;8.310;2023-02-19T03:38:42;91637.69;;;4.73;100.00
53300;BME280;39187;48.476;8.310;2023-02-19T03:41:18;91636.16;;;4.72;100.00
53300;BME280;39187;48.476;8.310;2023-02-19T03:44:26;91635.75;;;4.70;100.00
53300;BME280;39187;48.476;8.310;2023-02-19T03:47:03;91643.69;;;4.74;100.00
53300;BME280;39187;48.476;8.310;2023-02-19T03:55:17;91655.97;;;4.56;100.00
53300;BME280;39187;48.476;8.310;2023-02-19T04:03:32;91648.13;;;4.63;100.00
53300;BME280;39187;48.476;8.310;2023-02-19T04:05:54;91650.50;;;4.78;100.00
53300;BME280;39187;48.476;8.310;2023-02-19T04:08:23;91650.06;;;4.69;100.00
53300;BME280;39187;48.476;8.310;2023-02-19T04:10:50;91647.81;;;4.71;100.00
53300;BME280;39187;48.476;8.310;2023-02-19T04:13:29;91648.47;;;4.61;100.00
53300;BME280;39187;48.476;8.310;2023-02-19T04:16:01;91649.22;;;4.58;100.00
53300;BME280;39187;48.476;8.310;2023-02-19T04:18:32;91652.28;;;4.64;100.00
53300;BME280;39187;48.476;8.310;2023-02-19T04:21:01;91654.56;;;4.69;100.00
53300;BME280;39187;48.476;8.310;2023-02-19T04:23:29;91657.56;;;4.64;100.00
53300;BME280;39187;48.476;8.310;2023-02-19T04:25:58;91658.59;;;4.52;100.00
53300;BME280;39187;48.476;8.310;2023-02-19T04:28:27;91662.47;;;4.65;100.00
53300;BME280;39187;48.476;8.310;2023-02-19T04:30:52;91658.66;;;4.59;100.00
53300;BME280;39187;48.476;8.310;2023-02-19T04:33:18;91665.44;;;4.60;100.00
53300;BME280;39187;48.476;8.310;2023-02-19T04:35:44;91674.50;;;4.63;100.00
53300;BME280;39187;48.476;8.310;2023-02-19T04:38:09;91674.88;;;4.65;100.00
53300;BME280;39187;48.476;8.310;2023-02-19T04:40:35;91669.47;;;4.47;100.00
53300;BME280;39187;48.476;8.310;2023-02-19T04:43:00;91679.25;;;4.47;100.00
53300;BME280;39187;48.476;8.310;2023-02-19T04:45:26;91684.13;;;4.44;100.00
53300;BME280;39187;48.476;8.310;2023-02-19T04:47:52;91689.81;;;4.50;100.00
53300;BME280;39187;48.476;8.310;2023-02-19T04:50:17;91676.97;;;4.45;100.00
53300;BME280;39187;48.476;8.310;2023-02-19T04:52:43;91677.41;;;4.51;100.00
53300;BME280;39187;48.476;8.310;2023-02-19T04:55:08;91681.91;;;4.50;100.00
53300;BME280;39187;48.476;8.310;2023-02-19T04:57:34;91686.50;;;4.57;100.00
53300;BME280;39187;48.476;8.310;2023-02-19T05:00:00;91681.19;;;4.53;100.00
53300;BME280;39187;48.476;8.310;2023-02-19T05:02:26;91697.50;;;4.66;100.00
53300;BME280;39187;48.476;8.310;2023-02-19T05:04:52;91690.63;;;4.54;100.00
53300;BME280;39187;48.476;8.310;2023-02-19T05:07:17;91694.81;;;4.59;100.00
53300;BME280;39187;48.476;8.310;2023-02-19T05:09:43;91692.44;;;4.50;100.00
53300;BME280;39187;48.476;8.310;2023-02-19T05:12:28;91703.41;;;4.52;100.00
53300;BME280;39187;48.476;8.310;2023-02-19T05:14:54;91707.13;;;4.48;100.00
53300;BME280;39187;48.476;8.310;2023-02-19T05:17:19;91707.00;;;4.37;100.00
53300;BME280;39187;48.476;8.310;2023-02-19T05:19:45;91711.25;;;4.45;100.00
53300;BME280;39187;48.476;8.310;2023-02-19T05:22:10;91708.13;;;4.36;100.00
53300;BME280;39187;48.476;8.310;2023-02-19T05:24:36;91701.75;;;4.37;100.00
53300;BME280;39187;48.476;8.310;2023-02-19T05:27:02;91712.22;;;4.30;100.00
53300;BME280;39187;48.476;8.310;2023-02-19T05:29:30;91699.38;;;4.25;100.00
53300;BME280;39187;48.476;8.310;2023-02-19T05:31:56;91710.75;;;4.36;100.00
53300;BME280;39187;48.476;8.310;2023-02-19T05:34:21;91713.78;;;4.34;100.00
53300;BME280;39187;48.476;8.310;2023-02-19T05:36:47;91707.00;;;4.37;100.00
53300;BME280;39187;48.476;8.310;2023-02-19T05:39:12;91706.25;;;4.36;100.00
53300;BME280;39187;48.476;8.310;2023-02-19T05:41:38;91706.19;;;4.29;100.00
53300;BME280;39187;48.476;8.310;2023-02-19T05:44:04;91699.41;;;4.28;100.00
53300;BME280;39187;48.476;8.310;2023-02-19T05:46:30;91694.50;;;4.27;100.00
53300;BME280;39187;48.476;8.310;2023-02-19T05:48:56;91695.56;;;4.19;100.00
53300;BME280;39187;48.476;8.310;2023-02-19T05:51:26;91693.69;;;4.23;100.00
53300;BME280;39187;48.476;8.310;2023-02-19T05:53:52;91710.59;;;4.18;100.00
53300;BME280;39187;48.476;8.310;2023-02-19T05:56:37;91705.72;;;4.20;100.00
53300;BME280;39187;48.476;8.310;2023-02-19T06:01:38;91718.81;;;4.13;100.00
53300;BME280;39187;48.476;8.310;2023-02-19T06:04:04;91707.97;;;4.18;100.00
53300;BME280;39187;48.476;8.310;2023-02-19T06:06:30;91714.34;;;4.17;100.00
53300;BME280;39187;48.476;8.310;2023-02-19T06:08:55;91713.56;;;4.13;100.00
53300;BME280;39187;48.476;8.310;2023-02-19T06:11:21;91724.81;;;4.10;100.00
53300;BME280;39187;48.476;8.310;2023-02-19T06:13:46;91716.44;;;4.01;100.00
53300;BME280;39187;48.476;8.310;2023-02-19T06:16:14;91723.94;;;3.99;100.00
53300;BME280;39187;48.476;8.310;2023-02-19T06:18:42;91734.88;;;4.01;100.00
53300;BME280;39187;48.476;8.310;2023-02-19T06:21:09;91743.53;;;4.01;100.00
53300;BME280;39187;48.476;8.310;2023-02-19T06:23:36;91746.84;;;3.95;100.00
53300;BME280;39187;48.476;8.310;2023-02-19T06:26:22;91742.03;;;4.04;100.00
53300;BME280;39187;48.476;8.310;2023-02-19T06:28:49;91742.78;;;4.01;100.00
53300;BME280;39187;48.476;8.310;2023-02-19T06:31:16;91744.38;;;4.09;100.00
53300;BME280;39187;48.476;8.310;2023-02-19T06:33:43;91748.44;;;4.03;100.00
53300;BME280;39187;48.476;8.310;2023-02-19T06:36:14;91756.34;;;4.03;100.00
53300;BME280;39187;48.476;8.310;2023-02-19T06:38:40;91758.97;;;4.03;100.00
53300;BME280;39187;48.476;8.310;2023-02-19T06:41:07;91766.88;;;4.03;100.00
53300;BME280;39187;48.476;8.310;2023-02-19T06:43:34;91769.38;;;3.92;100.00
53300;BME280;39187;48.476;8.310;2023-02-19T06:46:01;91773.88;;;3.92;100.00
53300;BME280;39187;48.476;8.310;2023-02-19T06:48:29;91770.22;;;4.00;100.00
53300;BME280;39187;48.476;8.310;2023-02-19T06:50:55;91773.56;;;3.97;100.00
53300;BME280;39187;48.476;8.310;2023-02-19T06:53:21;91780.63;;;3.89;100.00
53300;BME280;39187;48.476;8.310;2023-02-19T06:56:02;91774.59;;;3.89;100.00
53300;BME280;39187;48.476;8.310;2023-02-19T06:58:28;91794.16;;;3.88;100.00
53300;BME280;39187;48.476;8.310;2023-02-19T07:00:53;91784.72;;;3.87;100.00
53300;BME280;39187;48.476;8.310;2023-02-19T07:03:19;91799.31;;;3.81;100.00
53300;BME280;39187;48.476;8.310;2023-02-19T07:05:45;91795.59;;;3.85;100.00
53300;BME280;39187;48.476;8.310;2023-02-19T07:08:17;91805.38;;;3.85;100.00
53300;BME280;39187;48.476;8.310;2023-02-19T07:10:44;91800.94;;;3.89;100.00
53300;BME280;39187;48.476;8.310;2023-02-19T07:13:10;91794.72;;;3.74;100.00
53300;BME280;39187;48.476;8.310;2023-02-19T07:15:35;91796.13;;;3.94;100.00
53300;BME280;39187;48.476;8.310;2023-02-19T07:18:01;91796.38;;;3.86;100.00
53300;BME280;39187;48.476;8.310;2023-02-19T07:20:26;91808.19;;;3.99;100.00
53300;BME280;39187;48.476;8.310;2023-02-19T07:22:52;91797.66;;;3.99;100.00
53300;BME280;39187;48.476;8.310;2023-02-19T07:25:18;91795.50;;;3.78;100.00
53300;BME280;39187;48.476;8.310;2023-02-19T07:27:43;91795.44;;;4.01;100.00
53300;BME280;39187;48.476;8.310;2023-02-19T07:30:09;91797.84;;;4.13;100.00
53300;BME280;39187;48.476;8.310;2023-02-19T07:32:35;91800.66;;;3.97;100.00
53300;BME280;39187;48.476;8.310;2023-02-19T07:35:00;91799.97;;;4.04;100.00
53300;BME280;39187;48.476;8.310;2023-02-19T07:37:26;91801.25;;;4.14;100.00
53300;BME280;39187;48.476;8.310;2023-02-19T07:39:51;91804.91;;;4.06;100.00
53300;BME280;39187;48.476;8.310;2023-02-19T07:42:17;91801.31;;;3.91;100.00
53300;BME280;39187;48.476;8.310;2023-02-19T07:44:42;91809.38;;;4.01;100.00
53300;BME280;39187;48.476;8.310;2023-02-19T07:47:08;91812.81;;;4.06;100.00
53300;BME280;39187;48.476;8.310;2023-02-19T07:49:34;91799.81;;;3.90;100.00
53300;BME280;39187;48.476;8.310;2023-02-19T07:52:00;91827.66;;;3.91;100.00
53300;BME280;39187;48.476;8.310;2023-02-19T07:54:25;91828.03;;;3.89;100.00
53300;BME280;39187;48.476;8.310;2023-02-19T07:56:51;91827.28;;;3.89;100.00
53300;BME280;39187;48.476;8.310;2023-02-19T07:59:16;91825.00;;;3.87;100.00
53300;BME280;39187;48.476;8.310;2023-02-19T08:01:45;91827.31;;;3.92;100.00
53300;BME280;39187;48.476;8.310;2023-02-19T08:04:29;91825.19;;;4.01;100.00
53300;BME280;39187;48.476;8.310;2023-02-19T08:06:55;91847.16;;;3.86;100.00
53300;BME280;39187;48.476;8.310;2023-02-19T08:09:21;91845.06;;;3.99;100.00
53300;BME280;39187;48.476;8.310;2023-02-19T08:11:46;91843.56;;;3.98;100.00
53300;BME280;39187;48.476;8.310;2023-02-19T08:14:30;91843.31;;;4.10;100.00
53300;BME280;39187;48.476;8.310;2023-02-19T08:16:56;91851.19;;;4.07;100.00
53300;BME280;39187;48.476;8.310;2023-02-19T08:19:22;91861.09;;;4.17;100.00
53300;BME280;39187;48.476;8.310;2023-02-19T08:21:47;91860.97;;;4.06;100.00
53300;BME280;39187;48.476;8.310;2023-02-19T08:24:14;91869.28;;;4.08;100.00
53300;BME280;39187;48.476;8.310;2023-02-19T08:26:40;91877.22;;;4.12;100.00
53300;BME280;39187;48.476;8.310;2023-02-19T08:29:06;91880.13;;;4.03;100.00
53300;BME280;39187;48.476;8.310;2023-02-19T08:31:32;91872.31;;;4.10;100.00
53300;BME280;39187;48.476;8.310;2023-02-19T08:33:58;91875.69;;;4.11;100.00
53300;BME280;39187;48.476;8.310;2023-02-19T08:36:24;91890.13;;;4.20;100.00
53300;BME280;39187;48.476;8.310;2023-02-19T08:38:50;91880.19;;;4.10;100.00
53300;BME280;39187;48.476;8.310;2023-02-19T08:41:16;91891.16;;;4.12;100.00
53300;BME280;39187;48.476;8.310;2023-02-19T08:44:00;91892.31;;;4.15;100.00
53300;BME280;39187;48.476;8.310;2023-02-19T08:46:25;91890.06;;;4.17;100.00
53300;BME280;39187;48.476;8.310;2023-02-19T08:48:51;91897.53;;;4.11;100.00
53300;BME280;39187;48.476;8.310;2023-02-19T08:51:17;91879.72;;;4.01;100.00
53300;BME280;39187;48.476;8.310;2023-02-19T08:53:42;91895.09;;;3.99;100.00
53300;BME280;39187;48.476;8.310;2023-02-19T08:56:11;91906.66;;;4.17;100.00
53300;BME280;39187;48.476;8.310;2023-02-19T08:58:38;91910.03;;;4.18;100.00
53300;BME280;39187;48.476;8.310;2023-02-19T09:01:11;91908.94;;;4.19;100.00
53300;BME280;39187;48.476;8.310;2023-02-19T09:03:37;91918.88;;;4.02;100.00
53300;BME280;39187;48.476;8.310;2023-02-19T09:06:03;91914.66;;;4.24;100.00
53300;BME280;39187;48.476;8.310;2023-02-19T09:08:28;91920.75;;;4.28;100.00
53300;BME280;39187;48.476;8.310;2023-02-19T09:11:01;91920.22;;;4.49;100.00
53300;BME280;39187;48.476;8.310;2023-02-19T09:13:28;91926.47;;;4.34;100.00
53300;BME280;39187;48.476;8.310;2023-02-19T09:16:05;91927.34;;;4.15;100.00
53300;BME280;39187;48.476;8.310;2023-02-19T09:18:37;91918.50;;;4.30;100.00
53300;BME280;39187;48.476;8.310;2023-02-19T09:21:22;91931.94;;;4.22;100.00
53300;BME280;39187;48.476;8.310;2023-02-19T09:24:02;91940.75;;;4.33;100.00
53300;BME280;39187;48.476;8.310;2023-02-19T09:26:28;91926.19;;;4.16;100.00
53300;BME280;39187;48.476;8.310;2023-02-19T09:28:53;91941.94;;;4.09;100.00
53300;BME280;39187;48.476;8.310;2023-02-19T09:31:19;91946.16;;;4.17;100.00
53300;BME280;39187;48.476;8.310;2023-02-19T09:33:46;91942.19;;;4.30;100.00
53300;BME280;39187;48.476;8.310;2023-02-19T09:36:14;91953.97;;;4.10;100.00
53300;BME280;39187;48.476;8.310;2023-02-19T09:38:40;91958.19;;;4.15;100.00
53300;BME280;39187;48.476;8.310;2023-02-19T09:41:11;91962.22;;;4.09;100.00
53300;BME280;39187;48.476;8.310;2023-02-19T09:43:38;91956.59;;;4.10;100.00
53300;BME280;39187;48.476;8.310;2023-02-19T09:46:32;91966.88;;;3.92;100.00
53300;BME280;39187;48.476;8.310;2023-02-19T09:49:05;91985.69;;;4.17;100.00
53300;BME280;39187;48.476;8.310;2023-02-19T09:51:35;91989.38;;;4.39;100.00
53300;BME280;39187;48.476;8.310;2023-02-19T09:54:03;91988.22;;;4.36;100.00
53300;BME280;39187;48.476;8.310;2023-02-19T09:56:30;91996.63;;;4.46;100.00
53300;BME280;39187;48.476;8.310;2023-02-19T09:58:57;91988.22;;;4.36;100.00
53300;BME280;39187;48.476;8.310;2023-02-19T10:01:27;91987.16;;;4.41;100.00
53300;BME280;39187;48.476;8.310;2023-02-19T10:03:55;91990.50;;;4.38;100.00
53300;BME280;39187;48.476;8.310;2023-02-19T10:06:23;91993.91;;;4.38;100.00
53300;BME280;39187;48.476;8.310;2023-02-19T10:09:22;91989.75;;;4.37;100.00
53300;BME280;39187;48.476;8.310;2023-02-19T10:11:53;91994.88;;;4.53;100.00
53300;BME280;39187;48.476;8.310;2023-02-19T10:14:26;91984.97;;;4.47;100.00
53300;BME280;39187;48.476;8.310;2023-02-19T10:17:12;91993.94;;;4.42;100.00
53300;BME280;39187;48.476;8.310;2023-02-19T10:19:42;91995.22;;;4.52;100.00
53300;BME280;39187;48.476;8.310;2023-02-19T10:22:08;91993.81;;;4.61;100.00
53300;BME280;39187;48.476;8.310;2023-02-19T10:24:36;91998.44;;;4.68;100.00
53300;BME280;39187;48.476;8.310;2023-02-19T10:27:01;91993.13;;;4.94;100.00
53300;BME280;39187;48.476;8.310;2023-02-19T10:29:27;91999.38;;;4.82;100.00
53300;BME280;39187;48.476;8.310;2023-02-19T10:32:12;92002.06;;;4.86;100.00
53300;BME280;39187;48.476;8.310;2023-02-19T10:34:38;92007.50;;;4.70;100.00
53300;BME280;39187;48.476;8.310;2023-02-19T10:37:12;92011.13;;;4.89;100.00
53300;BME280;39187;48.476;8.310;2023-02-19T10:39:47;92014.13;;;4.87;100.00
53300;BME280;39187;48.476;8.310;2023-02-19T10:42:21;92013.06;;;4.92;100.00
53300;BME280;39187;48.476;8.310;2023-02-19T10:44:59;92015.09;;;4.75;100.00
53300;BME280;39187;48.476;8.310;2023-02-19T10:47:28;92015.47;;;4.74;100.00
53300;BME280;39187;48.476;8.310;2023-02-19T10:49:57;92021.22;;;4.79;100.00
53300;BME280;39187;48.476;8.310;2023-02-19T10:52:26;92031.75;;;4.79;100.00
53300;BME280;39187;48.476;8.310;2023-02-19T10:55:12;92034.47;;;4.87;100.00
53300;BME280;39187;48.476;8.310;2023-02-19T10:57:38;92021.34;;;4.90;100.00
53300;BME280;39187;48.476;8.310;2023-02-19T11:02:40;92017.03;;;4.78;100.00
53300;BME280;39187;48.476;8.310;2023-02-19T11:05:16;92021.13;;;4.46;100.00
53300;BME280;39187;48.476;8.310;2023-02-19T11:07:56;92021.34;;;4.64;100.00
53300;BME280;39187;48.476;8.310;2023-02-19T11:12:53;92028.16;;;4.65;100.00
53300;BME280;39187;48.476;8.310;2023-02-19T11:15:30;92028.84;;;4.62;100.00
53300;BME280;39187;48.476;8.310;2023-02-19T11:18:04;92024.59;;;4.80;100.00
53300;BME280;39187;48.476;8.310;2023-02-19T11:20:32;92015.06;;;4.72;100.00
53300;BME280;39187;48.476;8.310;2023-02-19T11:23:17;92029.50;;;4.55;100.00
53300;BME280;39187;48.476;8.310;2023-02-19T11:25:47;92027.28;;;4.57;100.00
53300;BME280;39187;48.476;8.310;2023-02-19T11:28:25;92022.16;;;4.68;100.00
53300;BME280;39187;48.476;8.310;2023-02-19T11:30:52;92017.28;;;4.70;100.00
53300;BME280;39187;48.476;8.310;2023-02-19T11:33:21;92019.81;;;4.59;100.00
53300;BME280;39187;48.476;8.310;2023-02-19T11:35:50;92003.41;;;4.73;100.00
53300;BME280;39187;48.476;8.310;2023-02-19T11:38:18;92006.31;;;4.64;100.00
53300;BME280;39187;48.476;8.310;2023-02-19T11:40:57;92008.03;;;4.53;100.00
53300;BME280;39187;48.476;8.310;2023-02-19T11:57:35;92014.72;;;4.73;100.00
53300;BME280;39187;48.476;8.310;2023-02-19T12:08:35;92031.44;;;4.84;100.00
53300;BME280;39187;48.476;8.310;2023-02-19T12:11:31;92019.94;;;4.70;100.00
53300;BME280;39187;48.476;8.310;2023-02-19T12:19:43;92025.56;;;4.68;100.00
53300;BME280;39187;48.476;8.310;2023-02-19T12:22:36;92021.13;;;4.76;100.00
53300;BME280;39187;48.476;8.310;2023-02-19T12:25:26;92021.59;;;4.81;100.00
53300;BME280;39187;48.476;8.310;2023-02-19T12:30:43;92022.41;;;4.86;100.00
53300;BME280;39187;48.476;8.310;2023-02-19T12:36:10;92021.22;;;5.13;100.00
53300;BME280;39187;48.476;8.310;2023-02-19T12:39:16;92017.38;;;5.07;100.00
53300;BME280;39187;48.476;8.310;2023-02-19T12:42:01;92016.63;;;4.76;100.00
53300;BME280;39187;48.476;8.310;2023-02-19T12:44:45;92020.69;;;5.00;100.00
53300;BME280;39187;48.476;8.310;2023-02-19T12:47:18;92020.75;;;5.04;100.00
53300;BME280;39187;48.476;8.310;2023-02-19T12:50:06;92020.13;;;4.84;100.00
53300;BME280;39187;48.476;8.310;2023-02-19T12:52:41;92037.91;;;4.91;100.00
53300;BME280;39187;48.476;8.310;2023-02-19T12:55:21;92013.44;;;4.94;100.00
53300;BME280;39187;48.476;8.310;2023-02-19T12:57:49;92023.75;;;5.02;100.00
53300;BME280;39187;48.476;8.310;2023-02-19T13:03:25;92011.31;;;5.03;100.00
53300;BME280;39187;48.476;8.310;2023-02-19T13:09:40;92018.38;;;4.95;100.00
53300;BME280;39187;48.476;8.310;2023-02-19T13:12:18;92024.63;;;4.83;100.00
53300;BME280;39187;48.476;8.310;2023-02-19T13:14:50;92010.59;;;5.06;100.00
53300;BME280;39187;48.476;8.310;2023-02-19T13:17:37;92014.06;;;5.13;100.00
53300;BME280;39187;48.476;8.310;2023-02-19T13:20:36;92015.13;;;5.05;100.00
53300;BME280;39187;48.476;8.310;2023-02-19T13:26:14;92017.81;;;5.12;100.00
53300;BME280;39187;48.476;8.310;2023-02-19T13:34:25;92008.97;;;5.28;100.00
53300;BME280;39187;48.476;8.310;2023-02-19T13:36:58;92009.81;;;5.35;100.00
53300;BME280;39187;48.476;8.310;2023-02-19T13:39:24;92012.78;;;5.30;100.00
53300;BME280;39187;48.476;8.310;2023-02-19T13:41:57;92001.44;;;5.30;100.00
53300;BME280;39187;48.476;8.310;2023-02-19T13:44:30;92006.47;;;5.42;100.00
53300;BME280;39187;48.476;8.310;2023-02-19T13:46:57;92008.19;;;4.94;100.00
53300;BME280;39187;48.476;8.310;2023-02-19T13:54:46;92004.34;;;5.17;100.00
53300;BME280;39187;48.476;8.310;2023-02-19T13:59:44;92008.56;;;5.25;100.00
53300;BME280;39187;48.476;8.310;2023-02-19T14:04:56;91993.38;;;5.15;100.00
53300;BME280;39187;48.476;8.310;2023-02-19T14:07:46;91998.88;;;5.03;100.00
53300;BME280;39187;48.476;8.310;2023-02-19T14:10:48;92003.72;;;4.98;100.00
53300;BME280;39187;48.476;8.310;2023-02-19T14:12:59;91983.25;;;5.21;100.00
53300;BME280;39187;48.476;8.310;2023-02-19T14:15:42;91990.72;;;5.15;100.00
53300;BME280;39187;48.476;8.310;2023-02-19T14:18:40;91984.75;;;5.18;100.00
53300;BME280;39187;48.476;8.310;2023-02-19T14:21:17;91988.44;;;5.14;100.00
53300;BME280;39187;48.476;8.310;2023-02-19T14:23:51;91985.03;;;5.13;100.00
53300;BME280;39187;48.476;8.310;2023-02-19T14:26:18;91990.31;;;5.13;100.00
53300;BME280;39187;48.476;8.310;2023-02-19T14:28:44;91998.03;;;4.96;100.00
53300;BME280;39187;48.476;8.310;2023-02-19T14:33:49;92002.38;;;5.11;100.00
53300;BME280;39187;48.476;8.310;2023-02-19T14:36:40;91995.81;;;4.98;100.00
53300;BME280;39187;48.476;8.310;2023-02-19T14:41:40;92004.25;;;5.10;100.00
53300;BME280;39187;48.476;8.310;2023-02-19T14:44:14;92012.50;;;5.05;100.00
53300;BME280;39187;48.476;8.310;2023-02-19T14:46:47;92010.19;;;4.74;100.00
53300;BME280;39187;48.476;8.310;2023-02-19T14:51:56;92015.75;;;4.95;100.00
53300;BME280;39187;48.476;8.310;2023-02-19T14:54:34;92020.59;;;4.93;100.00
53300;BME280;39187;48.476;8.310;2023-02-19T14:57:02;92012.66;;;4.90;100.00
53300;BME280;39187;48.476;8.310;2023-02-19T14:59:31;92003.06;;;5.04;100.00
53300;BME280;39187;48.476;8.310;2023-02-19T15:02:12;92010.28;;;5.11;100.00
53300;BME280;39187;48.476;8.310;2023-02-19T15:04:38;92007.41;;;4.93;100.00